sensor_id;sensor_type;location;lat;lon;timestamp;P1;durP1;ratioP1;P2;durP2;ratioP2
15151;SDS011;7676;50.900;6.234;2023-03-14T00:13:42;4.53;;;1.80;;
15151;SDS011;7676;50.900;6.234;2023-03-14T00:28:45;2.43;;;1.00;;
15151;SDS011;7676;50.900;6.234;2023-03-14T00:43:48;2.63;;;0.83;;
15151;SDS011;7676;50.900;6.234;2023-03-14T00:58:53;4.97;;;1.33;;
15151;SDS011;7676;50.900;6.234;2023-03-14T01:13:57;7.47;;;1.80;;
15151;SDS011;7676;50.900;6.234;2023-03-14T01:29:02;4.03;;;1.10;;
15151;SDS011;7676;50.900;6.234;2023-03-14T01:44:10;2.17;;;0.80;;
15151;SDS011;7676;50.900;6.234;2023-03-14T01:59:13;5.67;;;1.30;;
15151;SDS011;7676;50.900;6.234;2023-03-14T02:14:32;4.23;;;1.30;;
15151;SDS011;7676;50.900;6.234;2023-03-14T02:30:00;7.30;;;1.63;;
15151;SDS011;7676;50.900;6.234;2023-03-14T03:00:16;6.13;;;1.90;;
15151;SDS011;7676;50.900;6.234;2023-03-14T03:15:18;5.60;;;1.70;;
15151;SDS011;7676;50.900;6.234;2023-03-14T03:30:21;5.00;;;1.47;;
15151;SDS011;7676;50.900;6.234;2023-03-14T03:45:24;2.07;;;1.00;;
15151;SDS011;7676;50.900;6.234;2023-03-14T04:00:30;1.77;;;0.70;;
15151;SDS011;7676;50.900;6.234;2023-03-14T04:15:33;1.30;;;0.60;;
15151;SDS011;7676;50.900;6.234;2023-03-14T04:30:43;2.10;;;1.00;;
15151;SDS011;7676;50.900;6.234;2023-03-14T04:45:49;0.80;;;0.70;;
15151;SDS011;7676;50.900;6.234;2023-03-14T05:00:53;1.40;;;1.10;;
15151;SDS011;7676;50.900;6.234;2023-03-14T05:16:14;2.27;;;0.60;;
15151;SDS011;7676;50.900;6.234;2023-03-14T05:31:40;0.53;;;0.47;;
15151;SDS011;7676;50.900;6.234;2023-03-14T05:46:52;0.60;;;0.40;;
15151;SDS011;7676;50.900;6.234;2023-03-14T06:02:13;0.20;;;0.20;;
15151;SDS011;7676;50.900;6.234;2023-03-14T06:17:26;0.20;;;0.20;;
15151;SDS011;7676;50.900;6.234;2023-03-14T06:32:36;0.37;;;0.30;;
15151;SDS011;7676;50.900;6.234;2023-03-14T06:47:43;1.33;;;0.40;;
15151;SDS011;7676;50.900;6.234;2023-03-14T07:02:46;1.10;;;0.50;;
15151;SDS011;7676;50.900;6.234;2023-03-14T07:18:08;0.67;;;0.60;;
15151;SDS011;7676;50.900;6.234;2023-03-14T07:33:10;0.93;;;0.50;;
15151;SDS011;7676;50.900;6.234;2023-03-14T07:48:13;0.83;;;0.40;;
15151;SDS011;7676;50.900;6.234;2023-03-14T08:03:15;0.60;;;0.37;;
15151;SDS011;7676;50.900;6.234;2023-03-14T08:18:18;1.87;;;0.70;;
15151;SDS011;7676;50.900;6.234;2023-03-14T08:33:20;1.60;;;1.13;;
15151;SDS011;7676;50.900;6.234;2023-03-14T08:48:23;0.60;;;0.57;;
15151;SDS011;7676;50.900;6.234;2023-03-14T09:03:25;0.70;;;0.60;;
15151;SDS011;7676;50.900;6.234;2023-03-14T09:18:28;1.07;;;0.80;;
15151;SDS011;7676;50.900;6.234;2023-03-14T09:33:30;0.90;;;0.90;;
15151;SDS011;7676;50.900;6.234;2023-03-14T09:48:33;1.03;;;0.60;;
15151;SDS011;7676;50.900;6.234;2023-03-14T10:03:35;1.07;;;0.70;;
15151;SDS011;7676;50.900;6.234;2023-03-14T10:18:38;0.93;;;0.50;;
15151;SDS011;7676;50.900;6.234;2023-03-14T10:34:00;1.80;;;1.03;;
15151;SDS011;7676;50.900;6.234;2023-03-14T10:49:04;2.03;;;1.83;;
15151;SDS011;7676;50.900;6.234;2023-03-14T11:04:26;1.30;;;1.13;;
15151;SDS011;7676;50.900;6.234;2023-03-14T11:19:53;3.20;;;1.70;;
15151;SDS011;7676;50.900;6.234;2023-03-14T11:35:13;1.77;;;0.90;;
15151;SDS011;7676;50.900;6.234;2023-03-14T11:50:24;2.70;;;2.30;;
15151;SDS011;7676;50.900;6.234;2023-03-14T12:05:39;6.63;;;6.10;;
15151;SDS011;7676;50.900;6.234;2023-03-14T12:20:50;1.73;;;1.10;;
15151;SDS011;7676;50.900;6.234;2023-03-14T12:36:00;4.20;;;1.80;;
15151;SDS011;7676;50.900;6.234;2023-03-14T12:51:04;4.17;;;2.13;;
15151;SDS011;7676;50.900;6.234;2023-03-14T13:06:44;6.57;;;2.20;;
15151;SDS011;7676;50.900;6.234;2023-03-14T13:22:03;3.30;;;1.40;;
15151;SDS011;7676;50.900;6.234;2023-03-14T13:38:34;6.13;;;2.00;;
15151;SDS011;7676;50.900;6.234;2023-03-14T14:08:51;9.53;;;3.97;;
15151;SDS011;7676;50.900;6.234;2023-03-14T14:23:54;10.37;;;3.67;;
15151;SDS011;7676;50.900;6.234;2023-03-14T14:39:00;10.93;;;3.13;;
15151;SDS011;7676;50.900;6.234;2023-03-14T14:54:31;7.77;;;2.60;;
15151;SDS011;7676;50.900;6.234;2023-03-14T15:09:36;9.23;;;3.10;;
15151;SDS011;7676;50.900;6.234;2023-03-14T15:24:38;10.93;;;3.10;;
15151;SDS011;7676;50.900;6.234;2023-03-14T15:39:43;13.77;;;4.23;;
15151;SDS011;7676;50.900;6.234;2023-03-14T15:54:46;8.67;;;4.63;;
15151;SDS011;7676;50.900;6.234;2023-03-14T16:09:48;9.00;;;3.33;;
15151;SDS011;7676;50.900;6.234;2023-03-14T16:24:51;8.87;;;5.50;;
15151;SDS011;7676;50.900;6.234;2023-03-14T16:39:53;7.10;;;2.30;;
15151;SDS011;7676;50.900;6.234;2023-03-14T16:55:13;4.90;;;2.10;;
15151;SDS011;7676;50.900;6.234;2023-03-14T17:10:16;3.37;;;1.27;;
15151;SDS011;7676;50.900;6.234;2023-03-14T17:25:18;5.13;;;2.20;;
15151;SDS011;7676;50.900;6.234;2023-03-14T17:40:21;5.43;;;2.83;;
15151;SDS011;7676;50.900;6.234;2023-03-14T17:55:23;7.73;;;2.33;;
15151;SDS011;7676;50.900;6.234;2023-03-14T18:10:26;8.43;;;4.03;;
15151;SDS011;7676;50.900;6.234;2023-03-14T18:25:28;7.53;;;3.50;;
15151;SDS011;7676;50.900;6.234;2023-03-14T18:40:32;9.33;;;5.10;;
15151;SDS011;7676;50.900;6.234;2023-03-14T18:55:36;8.57;;;2.70;;
15151;SDS011;7676;50.900;6.234;2023-03-14T19:10:39;7.13;;;2.90;;
15151;SDS011;7676;50.900;6.234;2023-03-14T19:25:41;10.97;;;4.50;;
15151;SDS011;7676;50.900;6.234;2023-03-14T19:40:44;8.50;;;3.43;;
15151;SDS011;7676;50.900;6.234;2023-03-14T19:55:48;7.60;;;3.83;;
15151;SDS011;7676;50.900;6.234;2023-03-14T20:10:51;9.90;;;3.47;;
15151;SDS011;7676;50.900;6.234;2023-03-14T20:25:54;7.17;;;3.00;;
15151;SDS011;7676;50.900;6.234;2023-03-14T20:40:59;8.30;;;3.47;;
15151;SDS011;7676;50.900;6.234;2023-03-14T20:56:02;8.17;;;3.20;;
15151;SDS011;7676;50.900;6.234;2023-03-14T21:11:04;5.93;;;3.13;;
15151;SDS011;7676;50.900;6.234;2023-03-14T21:26:07;7.73;;;3.10;;
15151;SDS011;7676;50.900;6.234;2023-03-14T21:41:09;9.47;;;3.83;;
15151;SDS011;7676;50.900;6.234;2023-03-14T21:56:12;8.80;;;3.03;;
15151;SDS011;7676;50.900;6.234;2023-03-14T22:11:14;5.00;;;2.70;;
15151;SDS011;7676;50.900;6.234;2023-03-14T22:26:16;6.40;;;3.30;;
15151;SDS011;7676;50.900;6.234;2023-03-14T22:41:19;8.80;;;4.13;;
15151;SDS011;7676;50.900;6.234;2023-03-14T22:56:21;8.37;;;3.93;;
15151;SDS011;7676;50.900;6.234;2023-03-14T23:11:29;7.10;;;3.90;;
15151;SDS011;7676;50.900;6.234;2023-03-14T23:26:44;7.63;;;4.33;;
15151;SDS011;7676;50.900;6.234;2023-03-14T23:41:47;11.30;;;5.80;;
15151;SDS011;7676;50.900;6.234;2023-03-14T23:56:49;11.47;;;6.23;;
